createdAt,value
2017-05-17T00:00:09.550Z,3.98
2017-05-17T00:02:38.445Z,4.70
2017-05-17T00:05:07.385Z,4.32
2017-05-17T00:07:37.110Z,4.18
2017-05-17T00:10:06.755Z,4.52
2017-05-17T00:12:35.660Z,4.50
2017-05-17T00:15:04.593Z,4.54
2017-05-17T00:17:34.310Z,3.78
2017-05-17T00:20:03.194Z,4.76
2017-05-17T00:22:32.839Z,4.78
2017-05-17T00:25:02.826Z,4.12
2017-05-17T00:27:31.720Z,4.00
2017-05-17T00:30:00.631Z,4.98
2017-05-17T00:32:29.554Z,4.68
2017-05-17T00:34:58.453Z,4.22
2017-05-17T00:37:39.308Z,4.34
2017-05-17T00:40:20.826Z,4.26
2017-05-17T00:43:01.735Z,3.78
2017-05-17T00:45:42.673Z,4.72
2017-05-17T00:48:23.460Z,4.84
2017-05-17T00:51:04.134Z,4.80
2017-05-17T00:53:33.102Z,4.72
2017-05-17T00:56:01.998Z,4.02
2017-05-17T00:58:30.912Z,4.40
2017-05-17T01:00:59.863Z,4.66
2017-05-17T01:03:28.758Z,4.70
2017-05-17T01:08:32.944Z,4.30
2017-05-17T01:11:02.602Z,4.10
2017-05-17T01:13:31.511Z,4.42
2017-05-17T01:16:00.457Z,4.32
2017-05-17T01:18:29.358Z,4.92
2017-05-17T01:20:58.250Z,4.36
2017-05-17T01:23:27.231Z,4.20
2017-05-17T01:25:56.866Z,4.58
2017-05-17T01:28:25.849Z,4.14
2017-05-17T01:30:55.482Z,4.50
2017-05-17T01:33:24.439Z,4.10
2017-05-17T01:35:53.351Z,4.52
2017-05-17T01:38:22.979Z,3.94
2017-05-17T01:40:51.893Z,4.50
2017-05-17T01:43:20.805Z,3.98
2017-05-17T01:45:49.698Z,4.42
2017-05-17T01:48:18.589Z,4.22
2017-05-17T01:50:47.499Z,3.76
2017-05-17T01:53:17.178Z,4.04
2017-05-17T01:55:46.072Z,4.72
2017-05-17T01:58:15.011Z,4.12
2017-05-17T02:00:43.918Z,3.92
2017-05-17T02:03:12.822Z,4.50
2017-05-17T02:05:41.750Z,4.02
2017-05-17T02:08:10.651Z,4.50
2017-05-17T02:10:40.300Z,4.38
2017-05-17T02:13:09.242Z,4.28
2017-05-17T02:15:38.158Z,4.12
2017-05-17T02:18:07.810Z,3.76
2017-05-17T02:20:36.698Z,4.04
2017-05-17T02:23:05.620Z,4.84
2017-05-17T02:25:34.537Z,3.98
2017-05-17T02:28:04.248Z,4.64
2017-05-17T02:30:33.190Z,4.22
2017-05-17T02:33:02.085Z,3.96
2017-05-17T02:35:30.982Z,4.42
2017-05-17T02:37:59.917Z,4.20
2017-05-17T02:40:29.546Z,4.50
2017-05-17T02:42:58.452Z,4.52
2017-05-17T02:45:27.376Z,4.64
2017-05-17T02:47:56.280Z,4.02
2017-05-17T02:50:25.915Z,4.42
2017-05-17T02:52:54.846Z,3.60
2017-05-17T02:55:23.726Z,3.88
2017-05-17T02:57:52.775Z,4.24
2017-05-17T03:00:22.442Z,4.38
2017-05-17T03:02:51.331Z,4.64
2017-05-17T03:05:20.226Z,4.40
2017-05-17T03:07:49.278Z,4.50
2017-05-17T03:10:18.188Z,4.04
2017-05-17T03:12:47.091Z,4.12
2017-05-17T03:15:16.014Z,4.12
2017-05-17T03:17:45.678Z,3.60
2017-05-17T03:20:14.692Z,3.64
2017-05-17T03:22:43.751Z,4.04
2017-05-17T03:25:12.654Z,4.44
2017-05-17T03:27:41.551Z,4.16
2017-05-17T03:30:10.470Z,4.38
2017-05-17T03:32:39.358Z,4.20
2017-05-17T03:35:08.284Z,4.20
2017-05-17T03:37:37.918Z,3.78
2017-05-17T03:40:06.830Z,4.38
2017-05-17T03:42:35.769Z,4.10
2017-05-17T03:45:05.401Z,3.78
2017-05-17T03:47:34.340Z,3.28
2017-05-17T03:50:03.227Z,4.10
2017-05-17T03:52:32.127Z,4.16
2017-05-17T03:55:01.049Z,4.00
2017-05-17T03:57:29.992Z,3.40
2017-05-17T03:59:58.947Z,3.88
2017-05-17T04:02:27.922Z,4.16
2017-05-17T04:04:57.559Z,3.74
2017-05-17T04:07:27.500Z,3.80
2017-05-17T04:09:56.433Z,3.70
2017-05-17T04:12:25.676Z,4.04
2017-05-17T04:14:54.584Z,4.36
2017-05-17T04:17:23.522Z,3.96
2017-05-17T04:19:53.171Z,4.20
2017-05-17T04:22:22.062Z,4.46
2017-05-17T04:24:51.002Z,4.56
2017-05-17T04:27:20.742Z,3.96
2017-05-17T04:29:49.673Z,4.32
2017-05-17T04:32:18.629Z,3.10
2017-05-17T04:34:48.319Z,4.48
2017-05-17T04:37:17.984Z,3.70
2017-05-17T04:39:46.891Z,3.92
2017-05-17T04:42:15.794Z,3.90
2017-05-17T04:44:44.747Z,3.72
2017-05-17T04:47:13.652Z,4.40
2017-05-17T04:49:42.550Z,3.92
2017-05-17T04:52:11.541Z,4.38
2017-05-17T04:54:40.434Z,4.18
2017-05-17T04:57:09.339Z,4.40
2017-05-17T04:59:38.288Z,4.68
2017-05-17T05:02:07.182Z,4.02
2017-05-17T05:04:36.218Z,4.46
2017-05-17T05:07:05.147Z,4.40
2017-05-17T05:09:34.142Z,4.94
2017-05-17T05:12:03.008Z,4.58
2017-05-17T05:14:32.677Z,4.58
2017-05-17T05:17:01.575Z,5.40
2017-05-17T05:19:30.463Z,4.92
2017-05-17T05:21:59.366Z,4.92
2017-05-17T05:24:28.271Z,5.38
2017-05-17T05:26:57.938Z,4.78
2017-05-17T05:29:26.869Z,4.90
2017-05-17T05:31:55.778Z,4.20
2017-05-17T05:34:24.723Z,4.78
2017-05-17T05:36:53.623Z,4.16
2017-05-17T05:39:22.532Z,4.58
2017-05-17T05:41:52.193Z,3.72
2017-05-17T05:44:21.094Z,3.88
2017-05-17T05:46:49.982Z,5.00
2017-05-17T05:49:18.913Z,4.72
2017-05-17T05:51:48.567Z,5.06
2017-05-17T05:54:17.467Z,5.82
2017-05-17T05:56:46.575Z,4.88
2017-05-17T05:59:15.614Z,4.88
2017-05-17T06:01:44.506Z,5.04
2017-05-17T06:04:13.434Z,4.38
2017-05-17T06:06:42.336Z,5.08
2017-05-17T06:09:11.231Z,5.10
2017-05-17T06:11:40.134Z,4.58
2017-05-17T06:14:09.043Z,5.16
2017-05-17T06:16:38.725Z,3.48
2017-05-17T06:19:07.630Z,5.40
2017-05-17T06:21:36.998Z,4.14
2017-05-17T06:24:05.918Z,4.40
2017-05-17T06:26:34.838Z,3.52
2017-05-17T06:29:04.467Z,3.18
2017-05-17T06:31:33.419Z,3.00
2017-05-17T06:34:02.329Z,3.24
2017-05-17T06:36:31.282Z,3.22
2017-05-17T06:39:00.318Z,2.92
2017-05-17T06:41:29.206Z,3.02
2017-05-17T06:43:58.944Z,2.94
2017-05-17T06:46:28.583Z,2.98
2017-05-17T06:48:57.491Z,2.82
2017-05-17T06:51:26.418Z,2.90
2017-05-17T06:53:55.317Z,2.90
2017-05-17T06:56:24.194Z,2.42
2017-05-17T06:58:53.121Z,2.88
2017-05-17T07:01:22.770Z,2.78
2017-05-17T07:03:51.794Z,2.48
2017-05-17T07:06:20.727Z,2.58
2017-05-17T07:08:50.442Z,2.70
2017-05-17T07:11:19.358Z,3.36
2017-05-17T07:13:48.359Z,2.88
2017-05-17T07:16:17.272Z,3.26
2017-05-17T07:18:46.174Z,2.60
2017-05-17T07:21:15.802Z,3.00
2017-05-17T07:23:44.759Z,3.00
2017-05-17T07:26:13.676Z,2.48
2017-05-17T07:28:43.324Z,3.10
2017-05-17T07:31:12.238Z,2.66
2017-05-17T07:33:41.138Z,2.78
2017-05-17T07:36:10.081Z,2.60
2017-05-17T07:38:39.031Z,2.44
2017-05-17T07:41:07.929Z,2.90
2017-05-17T07:43:36.834Z,2.10
2017-05-17T07:46:05.777Z,3.06
2017-05-17T07:48:35.440Z,2.40
2017-05-17T07:51:04.346Z,2.50
2017-05-17T07:53:33.298Z,2.86
2017-05-17T07:56:02.183Z,2.56
2017-05-17T07:58:31.289Z,2.90
2017-05-17T08:01:00.737Z,3.20
2017-05-17T08:03:29.669Z,2.62
2017-05-17T08:05:58.571Z,3.16
2017-05-17T08:08:27.533Z,2.60
2017-05-17T08:10:56.459Z,2.26
2017-05-17T08:13:25.515Z,2.60
2017-05-17T08:15:54.379Z,3.02
2017-05-17T08:18:23.318Z,2.74
2017-05-17T08:20:52.308Z,2.64
2017-05-17T08:23:21.167Z,2.66
2017-05-17T08:25:50.141Z,2.52
2017-05-17T08:28:19.018Z,2.46
2017-05-17T08:30:47.931Z,2.34
2017-05-17T08:33:16.842Z,2.24
2017-05-17T08:35:45.751Z,2.40
2017-05-17T08:38:14.706Z,2.36
2017-05-17T08:40:44.370Z,2.34
2017-05-17T08:43:13.275Z,2.46
2017-05-17T08:45:42.196Z,2.40
2017-05-17T08:48:11.839Z,2.30
2017-05-17T08:50:40.740Z,2.84
2017-05-17T08:53:09.685Z,2.60
2017-05-17T08:55:38.569Z,2.28
2017-05-17T08:58:07.459Z,2.44
2017-05-17T09:00:37.127Z,2.80
2017-05-17T09:03:06.033Z,2.50
2017-05-17T09:05:34.914Z,2.38
2017-05-17T09:08:03.848Z,2.32
2017-05-17T09:10:33.486Z,2.30
2017-05-17T09:13:02.486Z,2.40
2017-05-17T09:15:32.150Z,2.30
2017-05-17T09:18:01.046Z,2.62
2017-05-17T09:20:30.690Z,2.90
2017-05-17T09:22:59.598Z,2.24
2017-05-17T09:25:28.554Z,1.98
2017-05-17T09:27:57.544Z,2.34
2017-05-17T09:30:26.414Z,2.68
2017-05-17T09:32:56.185Z,2.40
2017-05-17T09:35:25.094Z,2.44
2017-05-17T09:37:54.026Z,2.50
2017-05-17T09:40:22.967Z,2.36
2017-05-17T09:42:51.873Z,2.78
2017-05-17T09:45:20.780Z,3.10
2017-05-17T09:47:50.513Z,2.76
2017-05-17T09:50:19.426Z,2.64
2017-05-17T09:52:48.362Z,2.50
2017-05-17T09:55:17.283Z,2.48
2017-05-17T09:57:46.911Z,2.10
2017-05-17T10:00:15.823Z,2.50
2017-05-17T10:02:44.742Z,3.02
2017-05-17T10:05:14.437Z,2.22
2017-05-17T10:07:43.394Z,2.16
2017-05-17T10:10:12.287Z,2.42
2017-05-17T10:12:41.226Z,2.60
2017-05-17T10:15:10.098Z,2.50
2017-05-17T10:17:39.028Z,2.90
2017-05-17T10:20:08.657Z,2.78
2017-05-17T10:22:37.556Z,2.58
2017-05-17T10:25:06.521Z,2.34
2017-05-17T10:27:36.313Z,2.14
2017-05-17T10:30:05.230Z,2.68
2017-05-17T10:32:34.162Z,2.26
2017-05-17T10:35:03.087Z,2.46
2017-05-17T10:37:32.775Z,2.26
2017-05-17T10:40:01.678Z,2.22
2017-05-17T10:42:31.391Z,2.36
2017-05-17T10:45:00.309Z,2.34
2017-05-17T10:47:29.218Z,2.40
2017-05-17T10:49:58.125Z,2.34
2017-05-17T10:52:27.076Z,2.56
2017-05-17T10:54:56.734Z,3.22
2017-05-17T10:57:25.632Z,2.42
2017-05-17T10:59:54.543Z,2.44
2017-05-17T11:02:23.438Z,2.82
2017-05-17T11:04:53.093Z,2.70
2017-05-17T11:07:22.012Z,2.60
2017-05-17T11:09:50.949Z,2.84
2017-05-17T11:12:19.806Z,2.40
2017-05-17T11:14:48.735Z,2.72
2017-05-17T11:17:17.642Z,2.50
2017-05-17T11:19:46.551Z,3.00
2017-05-17T11:22:15.471Z,2.72
2017-05-17T11:24:44.411Z,2.66
2017-05-17T11:27:13.322Z,2.74
2017-05-17T11:29:42.336Z,3.08
2017-05-17T11:32:11.298Z,2.62
2017-05-17T11:34:40.211Z,2.84
2017-05-17T11:37:09.118Z,2.64
2017-05-17T11:39:38.042Z,2.54
2017-05-17T11:42:06.950Z,2.42
2017-05-17T11:44:35.847Z,4.30
2017-05-17T11:47:05.569Z,2.68
2017-05-17T11:49:34.462Z,2.56
2017-05-17T11:52:03.351Z,2.54
2017-05-17T11:54:32.298Z,2.96
2017-05-17T11:57:01.942Z,2.52
2017-05-17T11:59:30.853Z,2.32
2017-05-17T12:01:59.758Z,3.56
2017-05-17T12:04:28.892Z,2.86
2017-05-17T12:06:58.562Z,2.82
2017-05-17T12:09:27.979Z,2.68
2017-05-17T12:11:56.864Z,2.14
2017-05-17T12:14:26.278Z,2.86
2017-05-17T12:16:56.054Z,2.70
2017-05-17T12:19:25.014Z,2.68
2017-05-17T12:21:53.917Z,2.38
2017-05-17T12:24:22.827Z,2.26
2017-05-17T12:26:51.759Z,2.48
2017-05-17T12:29:21.414Z,2.68
2017-05-17T12:31:50.306Z,1.92
2017-05-17T12:34:19.218Z,2.54
2017-05-17T12:36:48.167Z,2.26
2017-05-17T12:39:17.064Z,2.82
2017-05-17T12:41:45.995Z,2.48
2017-05-17T12:44:14.899Z,2.58
2017-05-17T12:46:43.822Z,2.44
2017-05-17T12:49:12.826Z,2.66
2017-05-17T12:51:41.730Z,2.56
2017-05-17T12:54:10.643Z,2.42
2017-05-17T12:56:40.422Z,1.80
2017-05-17T12:59:09.322Z,2.30
2017-05-17T13:01:38.246Z,2.20
2017-05-17T13:04:07.178Z,2.98
2017-05-17T13:06:36.061Z,2.44
2017-05-17T13:09:05.023Z,2.22
2017-05-17T13:11:39.088Z,2.52
2017-05-17T13:14:08.018Z,2.66
2017-05-17T13:16:37.642Z,2.28
2017-05-17T13:19:06.542Z,2.10
2017-05-17T13:21:35.470Z,2.52
2017-05-17T13:24:04.397Z,2.14
2017-05-17T13:26:34.069Z,2.38
2017-05-17T13:29:02.946Z,2.44
2017-05-17T13:31:31.841Z,2.42
2017-05-17T13:34:00.778Z,2.22
2017-05-17T13:36:29.707Z,2.32
2017-05-17T13:38:58.622Z,2.34
2017-05-17T13:41:27.534Z,2.30
2017-05-17T13:43:56.478Z,2.36
2017-05-17T13:46:31.381Z,2.48
2017-05-17T13:49:01.558Z,2.56
2017-05-17T13:51:30.508Z,2.82
2017-05-17T13:53:59.467Z,2.74
2017-05-17T13:56:28.533Z,3.28
2017-05-17T13:58:57.433Z,2.90
2017-05-17T14:01:27.066Z,2.68
2017-05-17T14:03:55.957Z,2.74
2017-05-17T14:06:24.882Z,2.92
2017-05-17T14:08:53.776Z,2.52
2017-05-17T14:11:22.695Z,2.12
2017-05-17T14:13:52.349Z,2.42
2017-05-17T14:16:21.292Z,3.10
2017-05-17T14:18:50.902Z,2.70
2017-05-17T14:21:19.827Z,2.80
2017-05-17T14:23:48.777Z,2.46
2017-05-17T14:26:18.414Z,2.38
2017-05-17T14:28:47.331Z,3.24
2017-05-17T14:31:16.256Z,2.82
2017-05-17T14:33:45.746Z,2.60
2017-05-17T14:36:15.130Z,2.58
2017-05-17T14:38:45.634Z,2.20
2017-05-17T14:41:14.535Z,2.60
2017-05-17T14:43:44.848Z,2.50
2017-05-17T14:46:14.259Z,2.54
2017-05-17T14:48:43.307Z,2.56
2017-05-17T14:51:12.312Z,2.60
2017-05-17T14:53:41.267Z,2.68
2017-05-17T14:56:10.272Z,2.36
2017-05-17T14:58:39.917Z,1.88
2017-05-17T15:01:08.872Z,2.16
2017-05-17T15:03:37.886Z,1.86
2017-05-17T15:06:06.774Z,1.90
2017-05-17T15:08:35.731Z,2.50
2017-05-17T15:11:04.736Z,3.16
2017-05-17T15:13:35.057Z,1.90
2017-05-17T15:16:04.706Z,1.82
2017-05-17T15:18:33.751Z,2.52
2017-05-17T15:21:02.715Z,2.10
2017-05-17T15:23:31.661Z,2.10
2017-05-17T15:26:00.623Z,2.22
2017-05-17T15:28:29.482Z,2.02
2017-05-17T15:30:58.507Z,1.72
2017-05-17T15:33:27.415Z,1.64
2017-05-17T15:35:56.573Z,1.80
2017-05-17T15:38:25.511Z,1.70
2017-05-17T15:40:54.417Z,1.92
2017-05-17T15:43:23.331Z,1.80
2017-05-17T15:45:53.188Z,2.10
2017-05-17T15:48:22.803Z,2.10
2017-05-17T15:50:51.711Z,2.00
2017-05-17T15:53:20.650Z,1.92
2017-05-17T15:55:49.595Z,1.92
2017-05-17T15:58:18.578Z,1.86
2017-05-17T16:00:47.474Z,1.90
2017-05-17T16:03:16.438Z,2.00
2017-05-17T16:05:45.443Z,2.00
2017-05-17T16:08:14.858Z,1.94
2017-05-17T16:10:44.003Z,1.82
2017-05-17T16:13:12.962Z,1.90
2017-05-17T16:15:41.873Z,1.72
2017-05-17T16:18:10.779Z,2.22
2017-05-17T16:20:39.707Z,1.66
2017-05-17T16:23:08.598Z,1.90
2017-05-17T16:25:37.498Z,2.00
2017-05-17T16:28:06.964Z,3.90
2017-05-17T16:30:35.859Z,2.60
2017-05-17T16:33:04.796Z,2.00
2017-05-17T16:35:33.764Z,1.90
2017-05-17T16:38:02.672Z,3.04
2017-05-17T16:40:32.318Z,1.78
2017-05-17T16:43:01.247Z,1.90
2017-05-17T16:45:30.169Z,3.26
2017-05-17T16:47:59.825Z,2.52
2017-05-17T16:50:28.749Z,1.80
2017-05-17T16:52:57.672Z,1.84
2017-05-17T16:55:26.606Z,2.26
2017-05-17T16:57:55.588Z,2.14
2017-05-17T17:00:24.491Z,3.70
2017-05-17T17:02:53.543Z,1.84
2017-05-17T17:05:23.199Z,2.50
2017-05-17T17:07:52.096Z,3.48
2017-05-17T17:10:21.042Z,2.38
2017-05-17T17:12:49.967Z,1.94
2017-05-17T17:15:18.875Z,2.00
2017-05-17T17:17:47.791Z,2.14
2017-05-17T17:20:17.477Z,2.20
2017-05-17T17:22:47.697Z,4.70
2017-05-17T17:25:16.616Z,3.08
2017-05-17T17:27:46.265Z,2.44
2017-05-17T17:30:15.203Z,2.28
2017-05-17T17:32:44.871Z,2.18
2017-05-17T17:35:13.820Z,2.00
2017-05-17T17:37:42.866Z,2.16
2017-05-17T17:40:11.843Z,2.16
2017-05-17T17:42:41.511Z,2.36
2017-05-17T17:45:10.472Z,1.90
2017-05-17T17:47:39.409Z,2.48
2017-05-17T17:50:08.447Z,1.88
2017-05-17T17:52:37.379Z,2.56
2017-05-17T17:55:06.291Z,3.22
2017-05-17T17:57:35.213Z,2.62
2017-05-17T18:00:04.902Z,2.58
2017-05-17T18:02:34.640Z,2.12
2017-05-17T18:05:04.320Z,2.32
2017-05-17T18:07:34.205Z,2.42
2017-05-17T18:10:03.260Z,2.50
2017-05-17T18:12:32.205Z,2.36
2017-05-17T18:15:01.162Z,2.58
2017-05-17T18:17:30.088Z,2.60
2017-05-17T18:19:59.159Z,2.46
2017-05-17T18:22:28.072Z,2.64
2017-05-17T18:24:57.050Z,2.54
2017-05-17T18:27:25.994Z,2.46
2017-05-17T18:29:54.933Z,2.40
2017-05-17T18:32:23.863Z,2.32
2017-05-17T18:34:53.530Z,2.30
2017-05-17T18:37:22.529Z,2.28
2017-05-17T18:39:51.427Z,2.70
2017-05-17T18:42:20.331Z,2.54
2017-05-17T18:44:49.270Z,2.50
2017-05-17T18:47:18.231Z,2.22
2017-05-17T18:49:47.146Z,2.66
2017-05-17T18:52:16.817Z,2.40
2017-05-17T18:54:45.776Z,3.06
2017-05-17T18:57:14.678Z,2.54
2017-05-17T18:59:43.607Z,2.78
2017-05-17T19:02:13.323Z,2.58
2017-05-17T19:04:42.975Z,3.08
2017-05-17T19:07:11.911Z,3.28
2017-05-17T19:09:41.602Z,2.90
2017-05-17T19:12:10.539Z,2.72
2017-05-17T19:14:40.208Z,2.80
2017-05-17T19:17:09.145Z,2.72
2017-05-17T19:19:38.070Z,3.00
2017-05-17T19:22:06.977Z,2.54
2017-05-17T19:24:36.864Z,7.50
2017-05-17T19:27:05.828Z,3.58
2017-05-17T19:29:35.474Z,3.16
2017-05-17T19:32:04.602Z,3.06
2017-05-17T19:34:33.523Z,3.02
2017-05-17T19:37:02.455Z,3.02
2017-05-17T19:39:31.376Z,2.92
2017-05-17T19:42:00.270Z,3.36
2017-05-17T19:44:29.920Z,2.98
2017-05-17T19:46:58.855Z,3.12
2017-05-17T19:49:27.777Z,3.22
2017-05-17T19:51:56.708Z,3.50
2017-05-17T19:54:25.668Z,3.40
2017-05-17T19:56:54.652Z,3.82
2017-05-17T19:59:23.541Z,3.20
2017-05-17T20:01:54.088Z,2.96
2017-05-17T20:17:23.137Z,6.84
2017-05-17T20:19:52.794Z,4.62
2017-05-17T20:22:21.707Z,5.56
2017-05-17T20:24:50.639Z,2.80
2017-05-17T20:27:20.300Z,3.84
2017-05-17T20:29:49.368Z,3.82
2017-05-17T20:32:18.273Z,3.12
2017-05-17T20:34:47.206Z,3.46
2017-05-17T20:37:16.767Z,3.16
2017-05-17T20:39:45.743Z,3.56
2017-05-17T20:42:14.672Z,3.24
2017-05-17T20:44:43.615Z,3.12
2017-05-17T20:47:12.511Z,3.68
2017-05-17T20:49:41.465Z,3.28
2017-05-17T20:52:10.353Z,3.38
2017-05-17T20:54:39.345Z,3.64
2017-05-17T20:57:08.286Z,3.52
2017-05-17T20:59:37.903Z,3.52
2017-05-17T21:02:06.829Z,3.48
2017-05-17T21:04:35.762Z,3.56
2017-05-17T21:07:04.706Z,3.30
2017-05-17T21:09:33.609Z,3.98
2017-05-17T21:12:02.551Z,3.72
2017-05-17T21:14:31.452Z,3.58
2017-05-17T21:17:00.363Z,4.12
2017-05-17T21:19:29.294Z,3.78
2017-05-17T21:21:59.611Z,3.88
2017-05-17T21:24:29.287Z,4.40
2017-05-17T21:26:58.183Z,4.02
2017-05-17T21:29:27.091Z,3.64
2017-05-17T21:31:56.026Z,3.58
2017-05-17T21:34:24.930Z,3.78
2017-05-17T21:36:53.870Z,3.24
2017-05-17T21:39:23.554Z,3.82
2017-05-17T21:41:52.463Z,4.38
2017-05-17T21:44:21.348Z,3.64
2017-05-17T21:46:50.307Z,4.12
2017-05-17T21:49:19.219Z,3.54
2017-05-17T21:51:48.145Z,3.72
2017-05-17T21:54:17.776Z,3.60
2017-05-17T21:56:46.959Z,4.22
2017-05-17T21:59:16.622Z,3.76
2017-05-17T22:01:45.535Z,4.12
2017-05-17T22:04:14.421Z,3.24
2017-05-17T22:06:43.353Z,4.10
2017-05-17T22:09:13.002Z,3.80
2017-05-17T22:11:41.882Z,4.52
2017-05-17T22:14:10.887Z,3.90
2017-05-17T22:16:39.795Z,4.32
2017-05-17T22:19:08.699Z,4.14
2017-05-17T22:21:38.362Z,3.90
2017-05-17T22:24:07.390Z,4.68
2017-05-17T22:26:36.326Z,4.22
2017-05-17T22:29:05.238Z,4.24
2017-05-17T22:31:34.163Z,4.30
2017-05-17T22:34:03.067Z,3.80
2017-05-17T22:36:32.731Z,4.02
2017-05-17T22:39:01.633Z,4.08
2017-05-17T22:41:30.530Z,3.80
2017-05-17T22:43:59.542Z,3.84
2017-05-17T22:46:28.454Z,3.74
2017-05-17T22:48:57.366Z,4.62
2017-05-17T22:51:26.315Z,4.28
2017-05-17T22:53:55.943Z,4.50
2017-05-17T22:56:24.866Z,4.16
2017-05-17T22:58:53.811Z,4.74
2017-05-17T23:01:22.707Z,4.16
2017-05-17T23:03:51.619Z,4.64
2017-05-17T23:06:20.587Z,4.58
2017-05-17T23:08:49.565Z,4.16
2017-05-17T23:11:19.245Z,4.78
2017-05-17T23:13:48.173Z,4.44
2017-05-17T23:16:17.878Z,4.64
2017-05-17T23:18:47.547Z,4.12
2017-05-17T23:21:16.447Z,3.86
2017-05-17T23:23:45.338Z,4.80
2017-05-17T23:26:14.461Z,5.08
2017-05-17T23:28:44.098Z,4.60
2017-05-17T23:31:13.015Z,4.84
2017-05-17T23:33:41.936Z,4.42
2017-05-17T23:36:11.577Z,4.70
2017-05-17T23:38:40.489Z,4.40
2017-05-17T23:41:09.414Z,4.00
2017-05-17T23:43:38.312Z,4.60
2017-05-17T23:46:07.207Z,4.40
2017-05-17T23:48:36.723Z,5.16
2017-05-17T23:51:05.582Z,4.70
2017-05-17T23:53:34.486Z,5.02
2017-05-17T23:56:03.428Z,4.22
2017-05-17T23:58:33.070Z,5.02
